Time;durP1;ratioP1;P1;durP2;ratioP2;P2;SDS_P1;SDS_P2;PMS_P1;PMS_P2;Temp;Humidity;BMP_temperature;BMP_pressure;BME280_temperature;BME280_humidity;BME280_pressure;Samples;Min_cycle;Max_cycle;Signal;HPM_P1;HPM_P2
2022/12/19 00:01:25;;;;;;;55.40;16.47;;;;;;;;;;4986226;28;20490;-74
2022/12/19 00:03:53;;;;;;;55.73;17.17;;;;;;;;;;4993012;28;20454;-74
2022/12/19 00:06:20;;;;;;;53.37;15.80;;;;;;;;;;4977616;28;20497;-73
2022/12/19 00:08:47;;;;;;;44.83;15.80;;;;;;;;;;5010058;28;20478;-73
2022/12/19 00:11:14;;;;;;;45.37;14.30;;;;;;;;;;4993128;28;20457;-74
2022/12/19 00:13:40;;;;;;;49.73;15.33;;;;;;;;;;5010353;28;20447;-73
2022/12/19 00:16:09;;;;;;;47.73;15.80;;;;;;;;;;4994407;28;20427;-74
2022/12/19 00:18:37;;;;;;;47.03;12.67;;;;;;;;;;5010000;28;20481;-73
2022/12/19 00:21:04;;;;;;;45.93;15.63;;;;;;;;;;5011971;28;20458;-74
2022/12/19 00:23:31;;;;;;;45.23;14.27;;;;;;;;;;5009065;28;20870;-74
2022/12/19 00:26:10;;;;;;;69.20;19.13;;;;;;;;;;4991705;28;20656;-75
2022/12/19 00:28:38;;;;;;;47.50;15.37;;;;;;;;;;5007192;28;20463;-74
2022/12/19 00:31:05;;;;;;;48.80;13.43;;;;;;;;;;4993071;28;20447;-74
2022/12/19 00:33:32;;;;;;;45.10;14.97;;;;;;;;;;5004219;28;20590;-74
2022/12/19 00:36:02;;;;;;;40.13;13.47;;;;;;;;;;5010031;28;20451;-74
2022/12/19 00:38:30;;;;;;;48.40;16.43;;;;;;;;;;5002656;28;20454;-73
2022/12/19 00:41:10;;;;;;;54.77;16.60;;;;;;;;;;4991970;28;20454;-73
2022/12/19 00:43:37;;;;;;;55.70;15.07;;;;;;;;;;4972152;28;20458;-74
2022/12/19 00:46:04;;;;;;;51.73;14.93;;;;;;;;;;4973867;28;20522;-73
2022/12/19 00:48:31;;;;;;;61.13;15.77;;;;;;;;;;4991954;28;20509;-74
2022/12/19 00:51:01;;;;;;;51.17;14.70;;;;;;;;;;4991526;28;20473;-73
2022/12/19 00:53:27;;;;;;;56.10;17.23;;;;;;;;;;5007124;28;20493;-74
2022/12/19 00:55:56;;;;;;;52.77;16.97;;;;;;;;;;5008137;28;20447;-73
2022/12/19 00:58:22;;;;;;;51.63;15.77;;;;;;;;;;4992392;28;20542;-73
2022/12/19 01:00:49;;;;;;;56.80;16.20;;;;;;;;;;4981890;28;20453;-74
2022/12/19 01:03:16;;;;;;;55.37;15.37;;;;;;;;;;4992366;28;20470;-73
2022/12/19 01:05:43;;;;;;;49.27;16.07;;;;;;;;;;4993968;28;20570;-74
2022/12/19 01:08:09;;;;;;;49.47;15.80;;;;;;;;;;4991839;28;20521;-73
2022/12/19 01:10:36;;;;;;;45.30;15.80;;;;;;;;;;4993213;28;20537;-73
2022/12/19 01:13:05;;;;;;;56.87;16.50;;;;;;;;;;5009932;28;20451;-73
2022/12/19 01:15:33;;;;;;;55.07;16.33;;;;;;;;;;5009809;28;20541;-74
2022/12/19 01:18:02;;;;;;;46.77;14.27;;;;;;;;;;4990090;28;20452;-74
2022/12/19 01:20:29;;;;;;;50.57;15.57;;;;;;;;;;4991031;28;20483;-73
2022/12/19 01:22:56;;;;;;;43.13;15.80;;;;;;;;;;4975808;28;20483;-74
2022/12/19 01:25:25;;;;;;;46.40;14.27;;;;;;;;;;4991280;28;20471;-73
2022/12/19 01:27:53;;;;;;;49.00;15.23;;;;;;;;;;4992720;28;20501;-74
2022/12/19 01:30:20;;;;;;;45.53;14.33;;;;;;;;;;4991148;28;20487;-73
2022/12/19 01:32:48;;;;;;;48.23;15.27;;;;;;;;;;5017428;28;20865;-73
2022/12/19 01:35:14;;;;;;;44.90;14.20;;;;;;;;;;4972783;28;21307;-74
2022/12/19 01:37:48;;;;;;;58.43;17.27;;;;;;;;;;5005115;28;20459;-73
2022/12/19 01:40:15;;;;;;;45.43;15.30;;;;;;;;;;4990340;28;20514;-74
2022/12/19 01:42:41;;;;;;;43.60;11.60;;;;;;;;;;5007978;28;20454;-73
2022/12/19 01:45:08;;;;;;;47.83;15.37;;;;;;;;;;5010100;28;20482;-74
2022/12/19 01:47:45;;;;;;;51.63;16.93;;;;;;;;;;5009558;28;20538;-73
2022/12/19 01:50:16;;;;;;;45.63;14.33;;;;;;;;;;4991520;28;20975;-73
2022/12/19 01:52:43;;;;;;;49.67;14.63;;;;;;;;;;4971968;28;20492;-74
2022/12/19 01:55:09;;;;;;;52.40;14.80;;;;;;;;;;4966916;28;20458;-73
2022/12/19 01:57:36;;;;;;;48.37;15.70;;;;;;;;;;4965795;28;20991;-74
2022/12/19 02:00:04;;;;;;;45.63;14.70;;;;;;;;;;4989112;28;20459;-73
2022/12/19 02:02:42;;;;;;;55.57;16.30;;;;;;;;;;5009910;28;20457;-73
2022/12/19 02:05:09;;;;;;;42.27;14.00;;;;;;;;;;5008986;28;21179;-74
2022/12/19 02:07:35;;;;;;;52.50;16.33;;;;;;;;;;4975305;28;20455;-74
2022/12/19 02:10:02;;;;;;;43.73;14.00;;;;;;;;;;4992579;28;20807;-74
2022/12/19 02:12:35;;;;;;;61.73;16.50;;;;;;;;;;4991242;28;20463;-73
2022/12/19 02:15:02;;;;;;;47.93;14.13;;;;;;;;;;4992019;28;20553;-74
2022/12/19 02:17:40;;;;;;;42.67;13.20;;;;;;;;;;4972249;28;20462;-73
2022/12/19 02:20:27;;;;;;;51.23;16.30;;;;;;;;;;4995011;28;20484;-74
2022/12/19 02:23:01;;;;;;;57.57;16.03;;;;;;;;;;5014630;28;20497;-73
2022/12/19 02:25:39;;;;;;;54.20;16.20;;;;;;;;;;4997706;28;20794;-73
2022/12/19 02:28:16;;;;;;;48.67;15.30;;;;;;;;;;4981992;28;20545;-73
2022/12/19 02:31:01;;;;;;;45.70;14.17;;;;;;;;;;4998599;28;20500;-73
2022/12/19 02:33:44;;;;;;;54.97;15.47;;;;;;;;;;5005282;28;20451;-73
2022/12/19 02:36:11;;;;;;;64.17;18.67;;;;;;;;;;4978279;28;20639;-74
2022/12/19 02:38:43;;;;;;;46.03;15.70;;;;;;;;;;4996995;28;20458;-73
2022/12/19 02:41:16;;;;;;;49.13;15.03;;;;;;;;;;4994946;28;20472;-73
2022/12/19 02:43:45;;;;;;;59.83;15.93;;;;;;;;;;4981227;28;20463;-73
2022/12/19 02:46:15;;;;;;;56.20;16.90;;;;;;;;;;4978891;28;20577;-74
2022/12/19 02:48:43;;;;;;;57.90;16.33;;;;;;;;;;4996041;28;20514;-73
2022/12/19 02:51:10;;;;;;;30.77;9.33;;;;;;;;;;4998620;28;20429;-73
2022/12/19 02:53:37;;;;;;;74.57;18.27;;;;;;;;;;4997109;28;20457;-73
2022/12/19 02:56:07;;;;;;;57.67;17.67;;;;;;;;;;4994980;28;20440;-74
2022/12/19 02:58:40;;;;;;;54.13;15.40;;;;;;;;;;4991144;28;20973;-73
2022/12/19 03:01:13;;;;;;;41.47;13.00;;;;;;;;;;4996607;28;20458;-73
2022/12/19 03:03:39;;;;;;;62.70;16.93;;;;;;;;;;4996976;28;20542;-73
2022/12/19 03:06:16;;;;;;;50.13;14.60;;;;;;;;;;5015834;28;20873;-73
2022/12/19 03:08:46;;;;;;;53.20;16.27;;;;;;;;;;4978432;28;20459;-73
2022/12/19 03:11:13;;;;;;;58.40;15.80;;;;;;;;;;4984389;28;20478;-73
2022/12/19 03:13:55;;;;;;;49.10;15.80;;;;;;;;;;4976937;28;20513;-73
2022/12/19 03:16:22;;;;;;;55.33;16.63;;;;;;;;;;4971182;28;20476;-73
2022/12/19 03:18:50;;;;;;;71.40;18.17;;;;;;;;;;4997462;28;20451;-73
2022/12/19 03:21:18;;;;;;;47.40;14.77;;;;;;;;;;4991666;28;20926;-73
2022/12/19 03:23:45;;;;;;;50.17;15.53;;;;;;;;;;4998603;28;20521;-73
2022/12/19 03:26:14;;;;;;;53.07;17.17;;;;;;;;;;4996867;28;20489;-73
2022/12/19 03:28:48;;;;;;;61.97;16.73;;;;;;;;;;4980545;28;20874;-73
2022/12/19 03:31:15;;;;;;;68.17;25.90;;;;;;;;;;4994723;28;20536;-73
2022/12/19 03:33:42;;;;;;;54.07;19.20;;;;;;;;;;4992903;28;20508;-71
2022/12/19 03:36:12;;;;;;;51.83;17.33;;;;;;;;;;4991200;28;20455;-70
2022/12/19 03:38:38;;;;;;;56.00;17.50;;;;;;;;;;4994738;28;20450;-71
2022/12/19 03:41:05;;;;;;;51.53;16.47;;;;;;;;;;4994100;28;20456;-71
2022/12/19 03:43:32;;;;;;;52.90;17.43;;;;;;;;;;5011153;28;20458;-71
2022/12/19 03:46:01;;;;;;;49.47;15.47;;;;;;;;;;4992644;28;20477;-72
2022/12/19 03:48:30;;;;;;;48.63;13.57;;;;;;;;;;4975830;28;21287;-72
2022/12/19 03:50:59;;;;;;;45.70;14.47;;;;;;;;;;4976270;28;20862;-72
2022/12/19 03:53:27;;;;;;;50.37;16.43;;;;;;;;;;4979039;28;20474;-72
2022/12/19 03:55:55;;;;;;;52.80;15.77;;;;;;;;;;5009302;28;20459;-71
2022/12/19 03:58:29;;;;;;;48.73;15.90;;;;;;;;;;5008002;28;20490;-72
2022/12/19 04:00:56;;;;;;;41.30;14.67;;;;;;;;;;4990716;28;20815;-71
2022/12/19 04:03:22;;;;;;;49.13;15.67;;;;;;;;;;5007668;28;20454;-72
2022/12/19 04:05:49;;;;;;;48.43;15.40;;;;;;;;;;4993827;28;20427;-72
2022/12/19 04:08:15;;;;;;;54.30;16.67;;;;;;;;;;4990805;28;20486;-72
2022/12/19 04:11:02;;;;;;;44.60;15.43;;;;;;;;;;4993648;28;20509;-72
2022/12/19 04:13:48;;;;;;;48.20;15.27;;;;;;;;;;5009938;28;20877;-72
2022/12/19 04:16:35;;;;;;;50.17;14.60;;;;;;;;;;4974657;28;20442;-72
2022/12/19 04:19:04;;;;;;;43.50;14.60;;;;;;;;;;5002411;28;20504;-71
2022/12/19 04:21:32;;;;;;;45.30;14.47;;;;;;;;;;4977789;28;20494;-71
2022/12/19 04:24:03;;;;;;;40.30;14.20;;;;;;;;;;4993197;28;20439;-71
2022/12/19 04:26:29;;;;;;;37.70;14.13;;;;;;;;;;4993942;28;20558;-73
2022/12/19 04:28:57;;;;;;;42.17;13.97;;;;;;;;;;4967646;28;20980;-70
2022/12/19 04:31:24;;;;;;;43.20;13.73;;;;;;;;;;4971456;28;20828;-68
2022/12/19 04:33:51;;;;;;;42.63;14.27;;;;;;;;;;4993884;28;20458;-71
2022/12/19 04:36:17;;;;;;;43.97;14.00;;;;;;;;;;5027645;28;20837;-69
2022/12/19 04:38:44;;;;;;;43.03;14.43;;;;;;;;;;5010004;28;20482;-71
2022/12/19 04:41:11;;;;;;;44.53;14.27;;;;;;;;;;4993479;28;20423;-71
2022/12/19 04:43:37;;;;;;;44.87;15.17;;;;;;;;;;5006298;28;20488;-67
2022/12/19 04:46:04;;;;;;;45.63;16.10;;;;;;;;;;5009884;28;21103;-75
2022/12/19 04:48:33;;;;;;;59.27;20.13;;;;;;;;;;5009150;28;20995;-70
2022/12/19 04:51:00;;;;;;;42.83;17.27;;;;;;;;;;5008707;28;20451;-71
2022/12/19 04:53:26;;;;;;;56.67;19.33;;;;;;;;;;5014936;28;20510;-70
2022/12/19 04:56:02;;;;;;;46.00;16.93;;;;;;;;;;5010059;28;20461;-77
2022/12/19 04:58:29;;;;;;;43.77;14.67;;;;;;;;;;5002301;28;20450;-75
2022/12/19 05:01:02;;;;;;;43.73;15.67;;;;;;;;;;5009551;28;20487;-70
2022/12/19 05:03:29;;;;;;;42.70;14.07;;;;;;;;;;4991561;28;20541;-75
2022/12/19 05:06:05;;;;;;;39.30;14.23;;;;;;;;;;4985161;28;20478;-73
2022/12/19 05:08:32;;;;;;;40.10;14.37;;;;;;;;;;5010998;28;20439;-73
2022/12/19 05:10:59;;;;;;;37.43;13.40;;;;;;;;;;5010053;28;20493;-75
2022/12/19 05:13:26;;;;;;;49.57;17.30;;;;;;;;;;5007940;28;20566;-76
2022/12/19 05:16:00;;;;;;;34.97;12.40;;;;;;;;;;4989925;28;20507;-76
2022/12/19 05:18:44;;;;;;;39.30;12.40;;;;;;;;;;5004635;28;20411;-76
2022/12/19 05:21:11;;;;;;;36.53;13.30;;;;;;;;;;4974738;28;20494;-72
2022/12/19 05:23:37;;;;;;;38.03;13.53;;;;;;;;;;4988178;28;20456;-71
2022/12/19 05:26:05;;;;;;;43.53;13.77;;;;;;;;;;4989495;28;20431;-75
2022/12/19 05:28:32;;;;;;;35.40;13.03;;;;;;;;;;4973584;28;20510;-73
2022/12/19 05:31:03;;;;;;;31.37;12.30;;;;;;;;;;4990941;28;20574;-73
2022/12/19 05:33:29;;;;;;;36.60;12.83;;;;;;;;;;5014033;28;20955;-73
2022/12/19 05:35:56;;;;;;;36.10;11.90;;;;;;;;;;5008144;28;20562;-73
2022/12/19 05:38:23;;;;;;;37.23;12.87;;;;;;;;;;5009606;28;20467;-70
2022/12/19 05:40:49;;;;;;;42.93;14.73;;;;;;;;;;5012009;28;20477;-70
2022/12/19 05:43:16;;;;;;;41.40;15.20;;;;;;;;;;4994277;28;20447;-71
2022/12/19 05:45:42;;;;;;;46.57;16.77;;;;;;;;;;5006994;28;20447;-70
2022/12/19 05:48:09;;;;;;;40.47;13.97;;;;;;;;;;5009854;28;20942;-70
2022/12/19 05:50:35;;;;;;;43.60;16.57;;;;;;;;;;5009789;28;20457;-70
2022/12/19 05:53:07;;;;;;;44.97;15.50;;;;;;;;;;5011251;28;20526;-70
2022/12/19 05:55:34;;;;;;;39.37;14.93;;;;;;;;;;5008164;28;20452;-69
2022/12/19 05:58:01;;;;;;;29.70;10.40;;;;;;;;;;4973164;28;20486;-70
2022/12/19 06:00:27;;;;;;;39.93;14.90;;;;;;;;;;4973788;28;20451;-73
2022/12/19 06:02:54;;;;;;;42.83;15.10;;;;;;;;;;5008765;28;20448;-72
2022/12/19 06:05:21;;;;;;;31.27;12.10;;;;;;;;;;4987437;28;20443;-73
2022/12/19 06:07:48;;;;;;;43.03;13.50;;;;;;;;;;5006205;28;20532;-74
2022/12/19 06:10:15;;;;;;;40.97;15.67;;;;;;;;;;4988399;28;20445;-76
2022/12/19 06:12:42;;;;;;;41.90;14.53;;;;;;;;;;4973062;28;20550;-74
2022/12/19 06:15:09;;;;;;;32.27;11.67;;;;;;;;;;5006316;28;20434;-75
2022/12/19 06:17:36;;;;;;;42.30;15.37;;;;;;;;;;5006925;28;20935;-75
2022/12/19 06:20:03;;;;;;;44.33;14.40;;;;;;;;;;4973924;28;20431;-71
2022/12/19 06:22:30;;;;;;;38.03;12.00;;;;;;;;;;5009674;28;20463;-70
2022/12/19 06:24:56;;;;;;;43.83;15.30;;;;;;;;;;5008611;28;20962;-71
2022/12/19 06:27:24;;;;;;;50.70;14.93;;;;;;;;;;5002157;28;21030;-74
2022/12/19 06:29:50;;;;;;;31.60;11.97;;;;;;;;;;5006812;28;20450;-73
2022/12/19 06:32:17;;;;;;;40.60;14.37;;;;;;;;;;5014290;28;20518;-74
2022/12/19 06:34:43;;;;;;;44.57;15.93;;;;;;;;;;5029388;28;20438;-73
2022/12/19 06:37:29;;;;;;;41.27;14.30;;;;;;;;;;5014763;28;20858;-73
2022/12/19 06:39:56;;;;;;;48.27;15.00;;;;;;;;;;5011785;28;20508;-73
2022/12/19 06:42:23;;;;;;;49.73;14.83;;;;;;;;;;5029298;28;20430;-73
2022/12/19 06:44:50;;;;;;;37.10;13.03;;;;;;;;;;5029476;28;20430;-73
2022/12/19 06:47:17;;;;;;;17.33;6.50;;;;;;;;;;5029046;28;21007;-73
2022/12/19 06:49:43;;;;;;;37.73;13.37;;;;;;;;;;4993967;28;20549;-73
2022/12/19 06:52:10;;;;;;;20.93;8.10;;;;;;;;;;5009269;28;20459;-74
2022/12/19 06:54:37;;;;;;;24.03;8.63;;;;;;;;;;4992131;28;20519;-73
2022/12/19 06:57:03;;;;;;;28.30;10.80;;;;;;;;;;4992207;28;20486;-73
2022/12/19 06:59:30;;;;;;;34.37;12.50;;;;;;;;;;4992043;28;20455;-73
2022/12/19 07:02:05;;;;;;;41.97;16.03;;;;;;;;;;5009533;28;20439;-73
2022/12/19 07:04:36;;;;;;;38.83;14.40;;;;;;;;;;5009406;28;20463;-73
2022/12/19 07:07:03;;;;;;;17.17;6.77;;;;;;;;;;5012292;28;20481;-73
2022/12/19 07:09:29;;;;;;;22.67;8.53;;;;;;;;;;4994540;28;20427;-72
2022/12/19 07:11:56;;;;;;;49.03;17.40;;;;;;;;;;4990554;28;20537;-72
2022/12/19 07:14:23;;;;;;;23.73;8.27;;;;;;;;;;4988982;28;20475;-72
2022/12/19 07:16:55;;;;;;;30.23;10.50;;;;;;;;;;4989258;28;20448;-73
2022/12/19 07:19:24;;;;;;;28.97;10.67;;;;;;;;;;4991717;28;20454;-73
2022/12/19 07:21:52;;;;;;;46.23;15.57;;;;;;;;;;4975600;28;20442;-73
2022/12/19 07:24:28;;;;;;;41.37;12.87;;;;;;;;;;4986881;28;20976;-70
2022/12/19 07:27:11;;;;;;;33.17;13.20;;;;;;;;;;4989159;28;21048;-72
2022/12/19 07:29:39;;;;;;;26.77;10.10;;;;;;;;;;4988659;28;20448;-72
2022/12/19 07:32:06;;;;;;;41.33;13.23;;;;;;;;;;5002482;28;21152;-72
2022/12/19 07:34:32;;;;;;;33.50;13.10;;;;;;;;;;5019319;28;20474;-74
2022/12/19 07:37:00;;;;;;;33.80;12.50;;;;;;;;;;4968075;28;20456;-71
2022/12/19 07:39:26;;;;;;;37.87;13.20;;;;;;;;;;4980993;28;20440;-73
2022/12/19 07:42:03;;;;;;;28.70;10.83;;;;;;;;;;5000472;28;20776;-74
2022/12/19 07:44:37;;;;;;;29.50;11.00;;;;;;;;;;4995729;28;20529;-71
2022/12/19 07:47:07;;;;;;;25.87;8.67;;;;;;;;;;4974490;28;20480;-71
2022/12/19 07:49:52;;;;;;;19.20;7.30;;;;;;;;;;4986075;28;20517;-70
2022/12/19 07:52:22;;;;;;;35.50;13.37;;;;;;;;;;4988865;28;20460;-70
2022/12/19 07:54:50;;;;;;;38.50;13.67;;;;;;;;;;4988766;28;20453;-70
2022/12/19 07:57:18;;;;;;;31.73;13.53;;;;;;;;;;4993921;28;20439;-70
2022/12/19 07:59:45;;;;;;;43.13;14.67;;;;;;;;;;5016507;28;20477;-71
2022/12/19 08:02:19;;;;;;;41.80;17.27;;;;;;;;;;5004402;28;20532;-69
2022/12/19 08:04:46;;;;;;;29.83;11.30;;;;;;;;;;4978607;28;20975;-73
2022/12/19 08:07:13;;;;;;;42.33;16.10;;;;;;;;;;5013491;28;21044;-72
2022/12/19 08:09:40;;;;;;;47.83;16.30;;;;;;;;;;5017117;28;20503;-71
2022/12/19 08:12:07;;;;;;;32.30;12.07;;;;;;;;;;4984039;28;20508;-73
2022/12/19 08:14:33;;;;;;;23.10;8.97;;;;;;;;;;5006970;28;20469;-71
2022/12/19 08:17:00;;;;;;;30.30;11.93;;;;;;;;;;5010001;28;20847;-70
2022/12/19 08:19:47;;;;;;;30.07;12.10;;;;;;;;;;5001950;28;20445;-73
2022/12/19 08:22:14;;;;;;;15.93;6.67;;;;;;;;;;5003328;28;20435;-75
2022/12/19 08:24:41;;;;;;;35.80;13.27;;;;;;;;;;5008228;28;20994;-71
2022/12/19 08:27:07;;;;;;;33.30;12.57;;;;;;;;;;4971202;28;20473;-69
2022/12/19 08:29:34;;;;;;;32.17;12.30;;;;;;;;;;5007571;28;21161;-71
2022/12/19 08:32:01;;;;;;;31.90;13.47;;;;;;;;;;5009870;28;20435;-69
2022/12/19 08:34:28;;;;;;;23.87;9.40;;;;;;;;;;4978993;28;20843;-71
2022/12/19 08:36:55;;;;;;;24.70;9.47;;;;;;;;;;5009195;28;20498;-71
2022/12/19 08:39:22;;;;;;;30.67;13.00;;;;;;;;;;4988240;28;20835;-71
2022/12/19 08:41:49;;;;;;;17.57;7.27;;;;;;;;;;5005396;28;20440;-70
2022/12/19 08:44:16;;;;;;;26.33;10.33;;;;;;;;;;4990248;28;20531;-69
2022/12/19 08:46:42;;;;;;;31.13;13.30;;;;;;;;;;5006423;28;20540;-68
2022/12/19 08:49:15;;;;;;;24.47;8.17;;;;;;;;;;5007322;28;20433;-69
2022/12/19 08:51:42;;;;;;;33.03;12.00;;;;;;;;;;5007665;28;20555;-72
2022/12/19 08:54:09;;;;;;;29.83;12.27;;;;;;;;;;5006390;28;20437;-69
2022/12/19 08:56:37;;;;;;;28.90;11.60;;;;;;;;;;4973124;28;20454;-69
2022/12/19 08:59:12;;;;;;;26.47;10.70;;;;;;;;;;4994510;28;20446;-67
2022/12/19 09:01:52;;;;;;;22.10;7.30;;;;;;;;;;5006360;28;20444;-70
2022/12/19 09:04:20;;;;;;;25.57;11.40;;;;;;;;;;5006898;28;20562;-70
2022/12/19 09:07:14;;;;;;;31.20;13.30;;;;;;;;;;4994457;28;20480;-69
2022/12/19 09:09:45;;;;;;;25.87;9.50;;;;;;;;;;4986112;28;20450;-70
2022/12/19 09:12:18;;;;;;;12.43;5.90;;;;;;;;;;4988004;28;20971;-70
2022/12/19 09:14:45;;;;;;;30.17;11.60;;;;;;;;;;5002487;28;21019;-69
2022/12/19 09:17:23;;;;;;;17.40;5.83;;;;;;;;;;5013806;28;20839;-70
2022/12/19 09:19:58;;;;;;;27.17;10.13;;;;;;;;;;5021674;28;20585;-69
2022/12/19 09:22:39;;;;;;;13.33;5.77;;;;;;;;;;4990784;28;20445;-71
2022/12/19 09:25:07;;;;;;;15.40;6.37;;;;;;;;;;5006866;28;20435;-69
2022/12/19 09:27:34;;;;;;;23.27;7.80;;;;;;;;;;4993648;28;20457;-63
2022/12/19 09:30:23;;;;;;;26.47;11.37;;;;;;;;;;5002250;28;20446;-65
2022/12/19 09:32:51;;;;;;;28.67;12.37;;;;;;;;;;5009833;28;20488;-66
2022/12/19 09:35:17;;;;;;;25.73;10.43;;;;;;;;;;5013883;28;20442;-66
2022/12/19 09:37:44;;;;;;;22.17;9.53;;;;;;;;;;5005663;28;20442;-64
2022/12/19 09:40:12;;;;;;;21.33;8.47;;;;;;;;;;5014666;28;20469;-64
2022/12/19 09:42:41;;;;;;;25.93;10.90;;;;;;;;;;5005037;28;20439;-65
2022/12/19 09:45:08;;;;;;;15.33;7.60;;;;;;;;;;5006619;28;20772;-64
2022/12/19 09:47:41;;;;;;;26.60;11.63;;;;;;;;;;5006167;28;20504;-63
2022/12/19 09:50:27;;;;;;;22.23;9.23;;;;;;;;;;4987571;28;20455;-65
2022/12/19 09:52:57;;;;;;;22.40;8.10;;;;;;;;;;4994666;28;20982;-66
2022/12/19 09:55:29;;;;;;;10.67;5.70;;;;;;;;;;4987105;28;20471;-65
2022/12/19 09:58:07;;;;;;;24.13;10.90;;;;;;;;;;4998304;28;20434;-65
2022/12/19 10:00:38;;;;;;;22.00;9.23;;;;;;;;;;4989118;28;20431;-65
2022/12/19 10:03:20;;;;;;;25.67;9.97;;;;;;;;;;5005538;28;20538;-66
2022/12/19 10:05:48;;;;;;;25.10;10.07;;;;;;;;;;4989270;28;20431;-65
2022/12/19 10:08:38;;;;;;;31.50;12.83;;;;;;;;;;5006573;28;20616;-66
2022/12/19 10:11:28;;;;;;;23.53;11.07;;;;;;;;;;5005954;28;20915;-66
2022/12/19 10:14:31;;;;;;;28.77;11.83;;;;;;;;;;5006381;28;20932;-67
2022/12/19 10:17:02;;;;;;;25.73;11.33;;;;;;;;;;4995656;28;20450;-68
2022/12/19 10:20:11;;;;;;;23.60;9.47;;;;;;;;;;5012266;28;20538;-67
2022/12/19 10:22:37;;;;;;;25.30;10.77;;;;;;;;;;4989800;28;20471;-67
2022/12/19 10:25:22;;;;;;;28.50;12.40;;;;;;;;;;5004425;28;20443;-67
2022/12/19 10:27:52;;;;;;;16.83;6.93;;;;;;;;;;5005097;28;20545;-67
2022/12/19 10:30:25;;;;;;;13.33;6.67;;;;;;;;;;5006581;28;20442;-75
2022/12/19 10:32:58;;;;;;;21.57;8.63;;;;;;;;;;5004527;28;20799;-74
2022/12/19 10:35:32;;;;;;;27.93;10.50;;;;;;;;;;5006729;28;20434;-74
2022/12/19 10:38:05;;;;;;;18.70;8.57;;;;;;;;;;4995167;28;20465;-72
2022/12/19 10:40:35;;;;;;;13.77;6.40;;;;;;;;;;5007381;28;20439;-68
2022/12/19 10:43:10;;;;;;;26.57;11.33;;;;;;;;;;4988887;28;20606;-72
2022/12/19 10:45:53;;;;;;;26.50;10.97;;;;;;;;;;4993573;28;20451;-73
2022/12/19 10:48:20;;;;;;;29.53;12.97;;;;;;;;;;4992666;28;20474;-75
2022/12/19 10:50:56;;;;;;;30.43;12.83;;;;;;;;;;4979963;28;20834;-71
2022/12/19 10:53:26;;;;;;;21.13;10.00;;;;;;;;;;4992821;28;20517;-73
2022/12/19 10:56:15;;;;;;;43.03;15.57;;;;;;;;;;4976388;28;20454;-73
2022/12/19 10:58:43;;;;;;;37.13;15.53;;;;;;;;;;4981695;28;20544;-69
2022/12/19 11:01:16;;;;;;;32.17;15.07;;;;;;;;;;4988715;28;20945;-69
2022/12/19 11:03:45;;;;;;;34.57;16.70;;;;;;;;;;5008606;28;20929;-71
2022/12/19 11:06:31;;;;;;;30.93;14.23;;;;;;;;;;4992061;28;20838;-73
2022/12/19 11:09:12;;;;;;;31.50;13.00;;;;;;;;;;4991077;28;20482;-72
2022/12/19 11:11:39;;;;;;;27.23;11.07;;;;;;;;;;4977261;28;20443;-72
2022/12/19 11:14:26;;;;;;;26.97;11.63;;;;;;;;;;5010139;28;20441;-74
2022/12/19 11:17:26;;;;;;;26.37;11.00;;;;;;;;;;4989997;28;20932;-76
2022/12/19 11:20:17;;;;;;;27.40;12.60;;;;;;;;;;4984542;28;20508;-72
2022/12/19 11:23:04;;;;;;;33.10;13.40;;;;;;;;;;4978728;28;20893;-70
2022/12/19 11:25:54;;;;;;;29.67;13.60;;;;;;;;;;4999576;28;20441;-70
2022/12/19 11:28:41;;;;;;;20.73;9.27;;;;;;;;;;4993872;28;20470;-70
2022/12/19 11:31:27;;;;;;;32.47;13.63;;;;;;;;;;5008092;28;20443;-72
2022/12/19 11:34:15;;;;;;;21.93;9.53;;;;;;;;;;4977284;28;20435;-72
2022/12/19 11:36:45;;;;;;;35.43;15.03;;;;;;;;;;4988151;28;20440;-72
2022/12/19 11:39:22;;;;;;;30.33;13.53;;;;;;;;;;4990076;28;20436;-73
2022/12/19 11:41:59;;;;;;;28.73;12.87;;;;;;;;;;4984887;28;20778;-72
2022/12/19 11:44:26;;;;;;;34.10;13.77;;;;;;;;;;4962488;28;20908;-73
2022/12/19 11:46:55;;;;;;;34.60;13.00;;;;;;;;;;5015360;28;20434;-72
2022/12/19 11:49:30;;;;;;;34.87;14.30;;;;;;;;;;4975497;28;20483;-73
2022/12/19 11:52:16;;;;;;;35.33;13.87;;;;;;;;;;5007447;28;20467;-76
2022/12/19 11:55:23;;;;;;;32.37;13.80;;;;;;;;;;5008521;28;20449;-72
2022/12/19 11:57:50;;;;;;;29.07;13.27;;;;;;;;;;5012933;28;20454;-76
2022/12/19 12:00:21;;;;;;;21.60;10.07;;;;;;;;;;5011250;28;20437;-73
2022/12/19 12:03:07;;;;;;;33.03;13.63;;;;;;;;;;4980336;28;20547;-75
2022/12/19 12:05:37;;;;;;;23.60;10.50;;;;;;;;;;4999012;28;20450;-75
2022/12/19 12:08:36;;;;;;;22.40;10.80;;;;;;;;;;5005398;28;20462;-74
2022/12/19 12:11:23;;;;;;;29.87;12.77;;;;;;;;;;4986297;28;20485;-71
2022/12/19 12:14:19;;;;;;;22.63;9.07;;;;;;;;;;5005616;28;20531;-71
2022/12/19 12:17:12;;;;;;;24.67;12.07;;;;;;;;;;5003873;28;20477;-71
2022/12/19 12:20:13;;;;;;;27.93;10.73;;;;;;;;;;5006688;28;21442;-72
2022/12/19 12:23:01;;;;;;;27.30;11.73;;;;;;;;;;4984098;28;20447;-69
2022/12/19 12:25:48;;;;;;;25.40;10.90;;;;;;;;;;4989012;28;20957;-70
2022/12/19 12:28:43;;;;;;;27.73;12.23;;;;;;;;;;5007886;28;20550;-70
2022/12/19 12:31:32;;;;;;;20.70;8.50;;;;;;;;;;4987214;28;20470;-74
2022/12/19 12:34:35;;;;;;;24.07;11.23;;;;;;;;;;4992063;28;20446;-71
2022/12/19 12:37:41;;;;;;;39.10;14.27;;;;;;;;;;5001548;28;20430;-75
2022/12/19 12:40:33;;;;;;;20.97;10.33;;;;;;;;;;5007525;28;20534;-75
2022/12/19 12:43:04;;;;;;;24.90;10.43;;;;;;;;;;4987404;28;20443;-77
2022/12/19 12:45:34;;;;;;;29.63;13.03;;;;;;;;;;4983179;28;20505;-76
2022/12/19 12:48:01;;;;;;;28.73;13.47;;;;;;;;;;4990140;28;20439;-74
2022/12/19 12:50:27;;;;;;;20.17;9.67;;;;;;;;;;4974147;28;20447;-74
2022/12/19 12:52:56;;;;;;;22.40;8.97;;;;;;;;;;5006639;28;20470;-72
2022/12/19 12:55:22;;;;;;;28.20;11.90;;;;;;;;;;4989372;28;20434;-70
2022/12/19 12:57:50;;;;;;;25.77;9.47;;;;;;;;;;5016320;28;20455;-72
2022/12/19 13:00:18;;;;;;;27.80;12.63;;;;;;;;;;4985870;28;20499;-70
2022/12/19 13:03:04;;;;;;;22.60;10.10;;;;;;;;;;4982478;28;20537;-75
2022/12/19 13:05:31;;;;;;;17.70;7.33;;;;;;;;;;4991027;28;20450;-72
2022/12/19 13:07:57;;;;;;;18.80;9.30;;;;;;;;;;5009485;28;20493;-74
2022/12/19 13:10:28;;;;;;;16.20;7.77;;;;;;;;;;5010942;28;20797;-75
2022/12/19 13:13:05;;;;;;;23.60;8.83;;;;;;;;;;4989711;28;20455;-72
2022/12/19 13:15:43;;;;;;;26.50;12.43;;;;;;;;;;4979097;28;20632;-72
2022/12/19 13:18:14;;;;;;;30.10;12.57;;;;;;;;;;4991645;28;21074;-73
2022/12/19 13:20:42;;;;;;;24.50;10.30;;;;;;;;;;4988255;28;20506;-75
2022/12/19 13:23:28;;;;;;;18.97;7.57;;;;;;;;;;5006335;28;20985;-70
2022/12/19 13:25:55;;;;;;;20.47;8.93;;;;;;;;;;4995631;28;20488;-73
2022/12/19 13:28:22;;;;;;;24.27;7.80;;;;;;;;;;4969332;28;20530;-70
2022/12/19 13:31:03;;;;;;;31.77;11.23;;;;;;;;;;4987293;28;20901;-72
2022/12/19 13:33:51;;;;;;;20.47;9.63;;;;;;;;;;5023335;28;20478;-71
2022/12/19 13:36:40;;;;;;;33.20;13.40;;;;;;;;;;5006273;28;21012;-72
2022/12/19 13:39:34;;;;;;;17.10;7.27;;;;;;;;;;4987432;28;20431;-71
2022/12/19 13:45:09;;;;;;;21.97;7.73;;;;;;;;;;4992115;28;20933;-71
2022/12/19 13:47:36;;;;;;;20.23;9.17;;;;;;;;;;4982923;28;20487;-68
2022/12/19 13:50:24;;;;;;;31.73;12.60;;;;;;;;;;5009265;28;20473;-75
2022/12/19 13:52:54;;;;;;;26.37;10.73;;;;;;;;;;5013424;28;20467;-71
2022/12/19 13:55:21;;;;;;;26.70;11.33;;;;;;;;;;5013678;28;20438;-71
2022/12/19 13:57:48;;;;;;;26.43;11.30;;;;;;;;;;4983770;28;21017;-70
2022/12/19 14:00:18;;;;;;;16.20;7.50;;;;;;;;;;4988262;28;20439;-74
2022/12/19 14:02:46;;;;;;;32.00;14.43;;;;;;;;;;4986501;28;20444;-74
2022/12/19 14:05:20;;;;;;;33.57;13.33;;;;;;;;;;5003451;28;20459;-69
2022/12/19 14:08:07;;;;;;;29.03;8.77;;;;;;;;;;5018871;28;21625;-68
2022/12/19 14:10:34;;;;;;;14.97;6.93;;;;;;;;;;5008032;28;20821;-69
2022/12/19 14:16:27;;;;;;;35.73;14.67;;;;;;;;;;4986097;28;20435;-69
2022/12/19 14:19:17;;;;;;;31.27;13.67;;;;;;;;;;5000195;28;21020;-73
2022/12/19 14:21:44;;;;;;;31.07;14.47;;;;;;;;;;4997599;28;20481;-70
2022/12/19 14:24:31;;;;;;;29.60;12.07;;;;;;;;;;4988424;28;20434;-72
2022/12/19 14:26:59;;;;;;;19.97;9.60;;;;;;;;;;4989483;28;20889;-71
2022/12/19 14:29:52;;;;;;;26.63;11.53;;;;;;;;;;5006963;28;20573;-71
2022/12/19 14:32:39;;;;;;;15.30;8.20;;;;;;;;;;4998386;28;20458;-69
2022/12/19 14:35:26;;;;;;;33.87;11.10;;;;;;;;;;4997937;28;20446;-72
2022/12/19 14:38:18;;;;;;;15.37;6.13;;;;;;;;;;4987623;28;20448;-72
2022/12/19 14:43:37;;;;;;;27.10;10.63;;;;;;;;;;4992054;28;20443;-71
2022/12/19 14:44:02;;;;;;;16.87;7.00;;;;;;;;;;4991732;28;20432;-69
2022/12/19 14:46:59;;;;;;;31.00;13.33;;;;;;;;;;4969406;28;20450;-70
2022/12/19 14:49:46;;;;;;;19.33;6.77;;;;;;;;;;5006117;28;20470;-70
2022/12/19 14:52:36;;;;;;;18.63;8.27;;;;;;;;;;5015863;28;20485;-69
2022/12/19 14:55:27;;;;;;;35.50;14.07;;;;;;;;;;5015305;28;20431;-70
2022/12/19 14:58:22;;;;;;;22.90;9.63;;;;;;;;;;4989492;28;20969;-75